Time;durP1;ratioP1;P1;durP2;ratioP2;P2;SDS_P1;SDS_P2;PMS_P1;PMS_P2;Temp;Humidity;BMP_temperature;BMP_pressure;BME280_temperature;BME280_humidity;BME280_pressure;Samples;Min_cycle;Max_cycle;Signal;HPM_P1;HPM_P2
2021/05/17 00:01:50;;;;;;;2.37;1.90;;;;;;;;;;5033482;28;20198;-60
2021/05/17 00:04:19;;;;;;;2.55;1.77;;;;;;;;;;5033425;28;20467;-60
2021/05/17 00:06:46;;;;;;;3.57;2.07;;;;;;;;;;5033276;28;20271;-60
2021/05/17 00:09:13;;;;;;;2.60;2.20;;;;;;;;;;5033267;28;20499;-61
2021/05/17 00:11:40;;;;;;;2.10;1.67;;;;;;;;;;5033423;28;20471;-60
2021/05/17 00:14:06;;;;;;;2.97;1.70;;;;;;;;;;5033321;28;20448;-60
2021/05/17 00:16:33;;;;;;;3.23;1.70;;;;;;;;;;5032833;28;20832;-60
2021/05/17 00:19:00;;;;;;;3.67;1.90;;;;;;;;;;5033314;28;20444;-60
2021/05/17 00:21:28;;;;;;;2.17;1.70;;;;;;;;;;5033314;28;20206;-61
2021/05/17 00:23:55;;;;;;;4.40;1.80;;;;;;;;;;5035518;28;20603;-60
2021/05/17 00:26:22;;;;;;;2.83;1.90;;;;;;;;;;5037436;28;20464;-61
2021/05/17 00:28:49;;;;;;;1.70;1.60;;;;;;;;;;5037412;28;20483;-60
2021/05/17 00:31:16;;;;;;;3.58;1.63;;;;;;;;;;5037162;28;20203;-61
2021/05/17 00:33:44;;;;;;;3.63;1.85;;;;;;;;;;5039060;28;20225;-60
2021/05/17 00:36:11;;;;;;;5.20;2.10;;;;;;;;;;5041693;28;20218;-60
2021/05/17 00:38:39;;;;;;;2.30;1.58;;;;;;;;;;5038437;28;20325;-60
2021/05/17 00:41:06;;;;;;;2.25;1.88;;;;;;;;;;5039615;28;20210;-61
2021/05/17 00:43:36;;;;;;;2.38;1.77;;;;;;;;;;5039118;28;20203;-59
2021/05/17 00:46:03;;;;;;;2.40;1.48;;;;;;;;;;5037697;28;20717;-61
2021/05/17 00:48:30;;;;;;;2.88;1.75;;;;;;;;;;5037399;28;20218;-60
2021/05/17 00:50:57;;;;;;;3.65;1.75;;;;;;;;;;5037049;28;20261;-60
2021/05/17 00:53:25;;;;;;;1.90;1.77;;;;;;;;;;5036804;28;20202;-60
2021/05/17 00:55:53;;;;;;;2.53;2.00;;;;;;;;;;5036392;28;20218;-59
2021/05/17 00:58:19;;;;;;;2.45;1.60;;;;;;;;;;5036794;28;20206;-59
2021/05/17 01:00:46;;;;;;;3.50;1.60;;;;;;;;;;5036695;28;20202;-59
2021/05/17 01:03:13;;;;;;;3.10;1.70;;;;;;;;;;5036387;28;20571;-60
2021/05/17 01:05:41;;;;;;;5.18;1.85;;;;;;;;;;5036411;28;20526;-60
2021/05/17 01:08:09;;;;;;;3.65;2.10;;;;;;;;;;5036776;28;20218;-60
2021/05/17 01:10:41;;;;;;;2.78;1.52;;;;;;;;;;5037537;28;20230;-59
2021/05/17 01:13:10;;;;;;;2.03;1.70;;;;;;;;;;5038968;28;20193;-60
2021/05/17 01:15:37;;;;;;;2.03;1.45;;;;;;;;;;5037617;28;20711;-60
2021/05/17 01:18:04;;;;;;;4.65;1.92;;;;;;;;;;5036994;28;20205;-61
2021/05/17 01:20:33;;;;;;;3.40;1.80;;;;;;;;;;5036122;28;20727;-61
2021/05/17 01:23:19;;;;;;;2.88;1.75;;;;;;;;;;5035949;28;20455;-60
2021/05/17 01:25:46;;;;;;;1.80;1.40;;;;;;;;;;5036205;28;20222;-60
2021/05/17 01:28:19;;;;;;;3.03;1.77;;;;;;;;;;5037225;28;20226;-60
2021/05/17 01:30:46;;;;;;;3.47;1.50;;;;;;;;;;5035977;28;20187;-61
2021/05/17 01:33:13;;;;;;;3.50;1.55;;;;;;;;;;5035777;28;20257;-60
2021/05/17 01:35:40;;;;;;;2.33;1.57;;;;;;;;;;5035288;28;20231;-61
2021/05/17 01:38:08;;;;;;;6.25;1.33;;;;;;;;;;5036022;28;20436;-60
2021/05/17 01:40:36;;;;;;;2.67;1.50;;;;;;;;;;5036013;28;20217;-60
2021/05/17 01:43:04;;;;;;;2.55;1.55;;;;;;;;;;5035617;28;20460;-60
2021/05/17 01:45:31;;;;;;;1.50;1.30;;;;;;;;;;5035736;28;20222;-60
2021/05/17 01:47:58;;;;;;;2.45;1.50;;;;;;;;;;5035703;28;20472;-60
2021/05/17 01:50:26;;;;;;;1.42;1.30;;;;;;;;;;5035766;28;20210;-60
2021/05/17 01:52:53;;;;;;;3.17;1.60;;;;;;;;;;5035640;28;20582;-60
2021/05/17 01:55:21;;;;;;;1.83;1.45;;;;;;;;;;5035645;28;20465;-60
2021/05/17 01:57:49;;;;;;;1.60;1.30;;;;;;;;;;5035599;28;20206;-60
2021/05/17 02:00:17;;;;;;;1.80;1.67;;;;;;;;;;5035233;28;20615;-60
2021/05/17 02:02:44;;;;;;;3.45;1.70;;;;;;;;;;5035550;28;20297;-59
2021/05/17 02:05:11;;;;;;;1.95;1.60;;;;;;;;;;5035132;28;20775;-60
2021/05/17 02:07:38;;;;;;;1.83;1.65;;;;;;;;;;5035176;28;20568;-60
2021/05/17 02:10:06;;;;;;;2.60;1.98;;;;;;;;;;5035044;28;20698;-60
2021/05/17 02:12:35;;;;;;;3.30;1.60;;;;;;;;;;5035122;28;20677;-60
2021/05/17 02:15:02;;;;;;;3.88;1.80;;;;;;;;;;5035146;28;20589;-61
2021/05/17 02:17:29;;;;;;;1.90;1.75;;;;;;;;;;5035017;28;20205;-61
2021/05/17 02:19:56;;;;;;;3.50;1.70;;;;;;;;;;5034903;28;20213;-60
2021/05/17 02:22:23;;;;;;;3.97;1.70;;;;;;;;;;5034958;28;20729;-60
2021/05/17 02:24:50;;;;;;;2.85;1.85;;;;;;;;;;5034892;28;20206;-60
2021/05/17 02:27:18;;;;;;;3.65;1.52;;;;;;;;;;5034891;28;20693;-60
2021/05/17 02:29:46;;;;;;;1.85;1.70;;;;;;;;;;5034650;28;20564;-60
2021/05/17 02:32:19;;;;;;;4.30;1.92;;;;;;;;;;5035040;28;20206;-60
2021/05/17 02:34:46;;;;;;;3.08;1.88;;;;;;;;;;5035062;28;20187;-60
2021/05/17 02:37:13;;;;;;;2.58;2.00;;;;;;;;;;5035003;28;20571;-60
2021/05/17 02:39:40;;;;;;;2.38;1.70;;;;;;;;;;5036846;28;20202;-61
2021/05/17 02:42:08;;;;;;;2.53;1.52;;;;;;;;;;5034524;28;20202;-59
2021/05/17 02:44:35;;;;;;;2.05;1.60;;;;;;;;;;5034671;28;20593;-61
2021/05/17 02:47:03;;;;;;;2.45;2.05;;;;;;;;;;5033678;28;20218;-59
2021/05/17 02:49:34;;;;;;;1.90;1.77;;;;;;;;;;5034658;28;20222;-60
2021/05/17 02:52:01;;;;;;;2.05;1.92;;;;;;;;;;5034828;28;20200;-61
2021/05/17 02:54:30;;;;;;;2.08;1.73;;;;;;;;;;5034759;28;20206;-60
2021/05/17 02:57:04;;;;;;;2.88;2.00;;;;;;;;;;5034654;28;20218;-60
2021/05/17 02:59:38;;;;;;;2.05;1.50;;;;;;;;;;5034702;28;20186;-60
2021/05/17 03:02:08;;;;;;;3.33;2.08;;;;;;;;;;5034513;28;20191;-60
2021/05/17 03:04:36;;;;;;;3.17;2.30;;;;;;;;;;5034655;28;20576;-60
2021/05/17 03:07:04;;;;;;;2.70;1.85;;;;;;;;;;5034350;28;20226;-60
2021/05/17 03:09:32;;;;;;;1.88;1.67;;;;;;;;;;5034154;28;20701;-60
2021/05/17 03:12:00;;;;;;;4.10;1.90;;;;;;;;;;5034459;28;20229;-61
2021/05/17 03:14:29;;;;;;;2.25;1.92;;;;;;;;;;5034370;28;20297;-60
2021/05/17 03:16:58;;;;;;;2.15;1.90;;;;;;;;;;5033707;28;20230;-60
2021/05/17 03:19:26;;;;;;;4.68;2.40;;;;;;;;;;5034180;28;20198;-60
2021/05/17 03:21:54;;;;;;;2.50;2.00;;;;;;;;;;5033749;28;20217;-60
2021/05/17 03:24:20;;;;;;;4.70;2.40;;;;;;;;;;5034186;28;20214;-60
2021/05/17 03:26:49;;;;;;;3.85;2.25;;;;;;;;;;5033953;28;20229;-60
2021/05/17 03:29:15;;;;;;;2.65;2.45;;;;;;;;;;5033523;28;20276;-60
2021/05/17 03:31:42;;;;;;;2.55;2.35;;;;;;;;;;5034017;28;20252;-60
2021/05/17 03:34:09;;;;;;;3.20;2.15;;;;;;;;;;5033860;28;20202;-60
2021/05/17 03:36:38;;;;;;;2.25;2.00;;;;;;;;;;5033452;28;20223;-60
2021/05/17 03:39:05;;;;;;;2.22;2.00;;;;;;;;;;5033599;28;20256;-60
2021/05/17 03:41:32;;;;;;;3.03;2.20;;;;;;;;;;5033869;28;20209;-60
2021/05/17 03:43:59;;;;;;;1.65;1.55;;;;;;;;;;5034303;28;20202;-60
2021/05/17 03:46:25;;;;;;;4.30;2.25;;;;;;;;;;5034887;28;20222;-60
2021/05/17 03:48:52;;;;;;;2.28;1.90;;;;;;;;;;5034387;28;20221;-60
2021/05/17 03:51:19;;;;;;;2.78;2.42;;;;;;;;;;5035242;28;20309;-60
2021/05/17 03:53:46;;;;;;;3.38;2.22;;;;;;;;;;5034877;28;20198;-59
2021/05/17 03:56:13;;;;;;;4.05;2.20;;;;;;;;;;5034016;28;20229;-60
2021/05/17 03:58:40;;;;;;;2.70;2.50;;;;;;;;;;5033211;28;20242;-60
2021/05/17 04:01:06;;;;;;;3.53;2.83;;;;;;;;;;5033408;28;20289;-60
2021/05/17 04:03:33;;;;;;;2.40;2.20;;;;;;;;;;5033514;28;20229;-60
2021/05/17 04:08:26;;;;;;;2.42;2.15;;;;;;;;;;5112160;27;20531;-60
2021/05/17 04:13:38;;;;;;;3.07;2.00;;;;;;;;;;5111544;28;20401;-60
2021/05/17 04:16:05;;;;;;;6.27;2.00;;;;;;;;;;5111424;28;20473;-61
2021/05/17 04:18:32;;;;;;;1.93;1.73;;;;;;;;;;5112709;28;20506;-60
2021/05/17 04:20:58;;;;;;;3.70;2.20;;;;;;;;;;5112460;28;20860;-60
2021/05/17 04:23:28;;;;;;;4.50;2.20;;;;;;;;;;5111410;28;20450;-61
2021/05/17 04:25:55;;;;;;;2.80;1.97;;;;;;;;;;5110994;28;20471;-60
2021/05/17 04:28:22;;;;;;;2.93;2.00;;;;;;;;;;5111234;28;20438;-60
2021/05/17 04:30:49;;;;;;;2.47;2.13;;;;;;;;;;5112406;28;20973;-59
2021/05/17 04:33:15;;;;;;;2.80;2.20;;;;;;;;;;5112093;28;20963;-60
2021/05/17 04:35:42;;;;;;;2.97;2.30;;;;;;;;;;5111795;28;20466;-60
2021/05/17 04:38:09;;;;;;;5.23;2.23;;;;;;;;;;5111001;28;20491;-60
2021/05/17 04:40:37;;;;;;;5.33;1.80;;;;;;;;;;5111345;28;20442;-60
2021/05/17 04:43:03;;;;;;;2.50;2.30;;;;;;;;;;5110556;28;20499;-60
2021/05/17 04:45:30;;;;;;;3.67;2.90;;;;;;;;;;5110533;28;20836;-60
2021/05/17 04:47:57;;;;;;;4.50;2.23;;;;;;;;;;5110533;28;20887;-61
2021/05/17 04:50:24;;;;;;;3.27;2.40;;;;;;;;;;5110718;28;20446;-59
2021/05/17 04:52:51;;;;;;;2.80;2.27;;;;;;;;;;5110066;28;20930;-61
2021/05/17 04:55:17;;;;;;;2.43;2.03;;;;;;;;;;5109973;28;21000;-60
2021/05/17 04:57:45;;;;;;;3.00;2.03;;;;;;;;;;5110053;28;20807;-60
2021/05/17 05:00:12;;;;;;;3.10;1.93;;;;;;;;;;5110354;28;20497;-60
2021/05/17 05:02:40;;;;;;;4.30;2.33;;;;;;;;;;5110222;28;20454;-60
2021/05/17 05:05:07;;;;;;;3.43;2.20;;;;;;;;;;5109982;28;20465;-60
2021/05/17 05:07:34;;;;;;;4.23;2.10;;;;;;;;;;5109671;28;20477;-60
2021/05/17 05:10:01;;;;;;;3.10;2.13;;;;;;;;;;5109997;28;20929;-60
2021/05/17 05:12:28;;;;;;;3.73;2.57;;;;;;;;;;5110218;28;20452;-60
2021/05/17 05:14:55;;;;;;;3.47;2.17;;;;;;;;;;5109932;28;20442;-60
2021/05/17 05:17:22;;;;;;;3.73;2.23;;;;;;;;;;5108810;28;20438;-60
2021/05/17 05:19:49;;;;;;;4.50;2.73;;;;;;;;;;5096248;28;20439;-60
2021/05/17 05:22:15;;;;;;;3.00;2.70;;;;;;;;;;5096555;28;21011;-60
2021/05/17 05:24:42;;;;;;;3.43;2.60;;;;;;;;;;5096735;28;20438;-59
2021/05/17 05:27:15;;;;;;;4.37;3.70;;;;;;;;;;5096940;28;20938;-61
2021/05/17 05:32:31;;;;;;;4.10;3.27;;;;;;;;;;5096115;28;20502;-60
2021/05/17 05:34:57;;;;;;;8.50;3.47;;;;;;;;;;5095688;28;20422;-60
2021/05/17 05:37:24;;;;;;;5.60;3.67;;;;;;;;;;5096941;28;20442;-60
2021/05/17 05:39:51;;;;;;;3.80;3.13;;;;;;;;;;5097856;28;20443;-60
2021/05/17 05:42:18;;;;;;;5.93;3.80;;;;;;;;;;5097974;28;20449;-60
2021/05/17 05:44:46;;;;;;;4.60;3.63;;;;;;;;;;5097363;28;20508;-58
2021/05/17 05:47:15;;;;;;;4.40;4.00;;;;;;;;;;5096982;28;20549;-60
2021/05/17 05:49:43;;;;;;;4.50;3.80;;;;;;;;;;5096209;28;20452;-60
2021/05/17 05:52:10;;;;;;;4.43;3.20;;;;;;;;;;5095747;28;20923;-60
2021/05/17 05:54:37;;;;;;;6.10;3.80;;;;;;;;;;5095303;28;20943;-60
2021/05/17 05:57:05;;;;;;;4.00;3.17;;;;;;;;;;5095377;28;21004;-60
2021/05/17 05:59:32;;;;;;;7.50;4.43;;;;;;;;;;5095606;28;20449;-60
2021/05/17 06:01:59;;;;;;;8.60;3.40;;;;;;;;;;5096191;28;20446;-59
2021/05/17 06:04:25;;;;;;;3.47;3.17;;;;;;;;;;5095600;28;20478;-61
2021/05/17 06:06:53;;;;;;;4.80;3.57;;;;;;;;;;5095047;28;20534;-59
2021/05/17 06:09:20;;;;;;;6.97;3.70;;;;;;;;;;5095090;28;20939;-60
2021/05/17 06:11:47;;;;;;;4.07;3.27;;;;;;;;;;5095452;28;20458;-60
2021/05/17 06:14:14;;;;;;;9.13;4.30;;;;;;;;;;5094725;28;20437;-60
2021/05/17 06:16:41;;;;;;;5.77;4.20;;;;;;;;;;5094948;28;20490;-59
2021/05/17 06:19:08;;;;;;;4.23;3.17;;;;;;;;;;5095190;28;20450;-60
2021/05/17 06:21:35;;;;;;;3.90;3.50;;;;;;;;;;5095618;28;20440;-60
2021/05/17 06:24:03;;;;;;;4.30;3.87;;;;;;;;;;5095170;28;20470;-60
2021/05/17 06:26:30;;;;;;;4.50;3.20;;;;;;;;;;5094926;28;20476;-61
2021/05/17 06:28:57;;;;;;;3.67;2.70;;;;;;;;;;5094983;28;20480;-59
2021/05/17 06:31:24;;;;;;;4.03;2.83;;;;;;;;;;5094583;28;20445;-60
2021/05/17 06:33:52;;;;;;;5.60;2.90;;;;;;;;;;5095000;28;20443;-60
2021/05/17 06:36:19;;;;;;;3.90;2.97;;;;;;;;;;5094792;28;20470;-59
2021/05/17 06:38:45;;;;;;;4.17;2.73;;;;;;;;;;5095276;28;20450;-59
2021/05/17 06:41:13;;;;;;;3.50;3.10;;;;;;;;;;5094248;28;20447;-61
2021/05/17 06:43:40;;;;;;;4.20;2.63;;;;;;;;;;5094488;28;20442;-59
2021/05/17 06:46:08;;;;;;;5.77;4.93;;;;;;;;;;5094481;28;20458;-59
2021/05/17 06:48:42;;;;;;;3.23;2.90;;;;;;;;;;5094643;28;20446;-60
2021/05/17 06:51:11;;;;;;;5.50;3.60;;;;;;;;;;5094551;28;20431;-60
2021/05/17 06:53:38;;;;;;;5.00;2.83;;;;;;;;;;5094362;28;20826;-60
2021/05/17 06:56:07;;;;;;;4.07;3.30;;;;;;;;;;5094015;28;20473;-59
2021/05/17 06:58:44;;;;;;;3.10;2.33;;;;;;;;;;5094723;28;20534;-59
2021/05/17 07:01:11;;;;;;;3.30;3.00;;;;;;;;;;5094005;28;20432;-58
2021/05/17 07:03:39;;;;;;;2.93;2.30;;;;;;;;;;5094542;28;20470;-59
2021/05/17 07:06:06;;;;;;;3.60;2.33;;;;;;;;;;5093564;28;20487;-60
2021/05/17 07:11:35;;;;;;;3.70;2.20;;;;;;;;;;5099096;28;20948;-59
2021/05/17 07:14:02;;;;;;;5.27;2.40;;;;;;;;;;5102812;28;20454;-60
2021/05/17 07:16:29;;;;;;;4.23;2.33;;;;;;;;;;5104921;28;20462;-61
2021/05/17 07:18:56;;;;;;;4.33;2.83;;;;;;;;;;5102465;28;20442;-60
2021/05/17 07:24:08;;;;;;;3.10;2.60;;;;;;;;;;5094790;28;20444;-60
2021/05/17 07:26:35;;;;;;;2.93;2.63;;;;;;;;;;5094050;28;20542;-60
2021/05/17 07:29:04;;;;;;;3.43;3.13;;;;;;;;;;5094431;28;20926;-60
2021/05/17 07:31:31;;;;;;;3.77;2.90;;;;;;;;;;5093924;28;20455;-59
2021/05/17 07:33:57;;;;;;;4.00;2.70;;;;;;;;;;5094346;28;20957;-60
2021/05/17 07:36:24;;;;;;;3.10;2.80;;;;;;;;;;5094780;28;20461;-61
2021/05/17 07:38:51;;;;;;;4.30;3.40;;;;;;;;;;5095491;28;20445;-60
2021/05/17 07:41:18;;;;;;;4.43;3.63;;;;;;;;;;5095774;28;20452;-59
2021/05/17 07:43:45;;;;;;;5.70;4.13;;;;;;;;;;5094522;28;20815;-60
2021/05/17 07:46:13;;;;;;;4.17;3.77;;;;;;;;;;5095168;28;20462;-60
2021/05/17 07:51:20;;;;;;;5.13;4.03;;;;;;;;;;5095697;28;20930;-60
2021/05/17 07:53:47;;;;;;;7.00;3.57;;;;;;;;;;5094129;28;20440;-61
2021/05/17 07:56:15;;;;;;;5.20;4.70;;;;;;;;;;5093945;28;20461;-61
2021/05/17 07:58:42;;;;;;;4.43;3.70;;;;;;;;;;5093587;28;20491;-61
2021/05/17 08:01:11;;;;;;;5.63;4.50;;;;;;;;;;5095484;28;20960;-61
2021/05/17 08:03:38;;;;;;;5.83;4.50;;;;;;;;;;5096877;28;20849;-60
2021/05/17 08:06:07;;;;;;;6.23;4.27;;;;;;;;;;5095308;28;20474;-59
2021/05/17 08:08:34;;;;;;;4.33;3.93;;;;;;;;;;5095798;28;20899;-58
2021/05/17 08:11:01;;;;;;;7.60;4.47;;;;;;;;;;5094951;28;20536;-60
2021/05/17 08:13:27;;;;;;;6.03;4.10;;;;;;;;;;5094477;28;20485;-60
2021/05/17 08:15:54;;;;;;;5.50;3.60;;;;;;;;;;5093934;28;20508;-60
2021/05/17 08:18:21;;;;;;;4.90;4.33;;;;;;;;;;5093586;28;20438;-61
2021/05/17 08:20:49;;;;;;;5.00;4.50;;;;;;;;;;5093433;28;20827;-58
2021/05/17 08:23:16;;;;;;;7.13;4.90;;;;;;;;;;5093362;28;20964;-60
2021/05/17 08:25:44;;;;;;;4.93;4.27;;;;;;;;;;5093284;28;20466;-61
2021/05/17 08:28:10;;;;;;;5.47;4.97;;;;;;;;;;5093281;28;20532;-60
2021/05/17 08:30:42;;;;;;;5.70;4.30;;;;;;;;;;5093272;28;20453;-60
2021/05/17 08:33:09;;;;;;;7.00;4.07;;;;;;;;;;5093224;28;20527;-60
2021/05/17 08:35:35;;;;;;;4.53;4.03;;;;;;;;;;5092582;28;20469;-59
2021/05/17 08:38:03;;;;;;;5.33;4.60;;;;;;;;;;5092720;28;20438;-60
2021/05/17 08:40:30;;;;;;;5.00;4.50;;;;;;;;;;5092684;28;20813;-60
2021/05/17 08:42:57;;;;;;;4.60;4.13;;;;;;;;;;5092905;28;20442;-59
2021/05/17 08:45:24;;;;;;;5.60;4.40;;;;;;;;;;5093729;28;20481;-60
2021/05/17 08:47:50;;;;;;;4.33;3.93;;;;;;;;;;5092993;28;20481;-59
2021/05/17 08:50:17;;;;;;;4.37;3.97;;;;;;;;;;5092721;28;20479;-58
2021/05/17 08:52:44;;;;;;;3.80;3.30;;;;;;;;;;5093313;28;20449;-60
2021/05/17 08:55:12;;;;;;;4.50;2.90;;;;;;;;;;5096577;28;20454;-61
2021/05/17 08:57:39;;;;;;;4.50;3.30;;;;;;;;;;5096994;28;20933;-60
2021/05/17 09:00:06;;;;;;;4.00;3.60;;;;;;;;;;5096666;28;20458;-58
2021/05/17 09:02:33;;;;;;;5.53;3.53;;;;;;;;;;5096408;28;20454;-58
2021/05/17 09:05:10;;;;;;;3.13;2.83;;;;;;;;;;5096118;28;20987;-59
2021/05/17 09:07:42;;;;;;;3.43;3.13;;;;;;;;;;5095660;28;20535;-60
2021/05/17 09:10:25;;;;;;;3.23;2.93;;;;;;;;;;5096240;28;20432;-61
2021/05/17 09:12:55;;;;;;;4.40;3.50;;;;;;;;;;5096900;28;20519;-61
2021/05/17 09:15:27;;;;;;;3.93;3.47;;;;;;;;;;5096567;28;20517;-60
2021/05/17 09:17:55;;;;;;;4.33;3.40;;;;;;;;;;5096382;28;20481;-59
2021/05/17 09:20:22;;;;;;;4.33;3.50;;;;;;;;;;5096228;28;20457;-58
2021/05/17 09:22:49;;;;;;;4.97;4.47;;;;;;;;;;5096161;28;20461;-61
2021/05/17 09:25:16;;;;;;;4.00;3.00;;;;;;;;;;5096232;28;20975;-60
2021/05/17 09:27:44;;;;;;;3.67;2.93;;;;;;;;;;5096501;28;20505;-61
2021/05/17 09:30:11;;;;;;;3.80;3.17;;;;;;;;;;5097567;28;20474;-59
2021/05/17 09:32:38;;;;;;;3.40;3.10;;;;;;;;;;5096641;28;20869;-61
2021/05/17 09:35:07;;;;;;;6.23;3.50;;;;;;;;;;5097365;28;20534;-61
2021/05/17 09:37:44;;;;;;;3.80;3.40;;;;;;;;;;5097674;28;20439;-60
2021/05/17 09:40:17;;;;;;;5.30;3.63;;;;;;;;;;5099811;28;20445;-60
2021/05/17 09:42:44;;;;;;;4.83;3.60;;;;;;;;;;5103445;28;20422;-60
2021/05/17 09:45:13;;;;;;;3.23;2.80;;;;;;;;;;5101021;28;20527;-60
2021/05/17 09:47:42;;;;;;;4.07;2.83;;;;;;;;;;5095906;28;20504;-61
2021/05/17 09:50:09;;;;;;;3.80;3.00;;;;;;;;;;5096920;28;20478;-60
2021/05/17 09:52:37;;;;;;;2.50;1.60;;;;;;;;;;5098320;28;20446;-60
2021/05/17 09:55:04;;;;;;;3.80;1.80;;;;;;;;;;5097591;28;20477;-60
2021/05/17 09:57:33;;;;;;;3.33;2.10;;;;;;;;;;5096761;28;20442;-60
2021/05/17 10:00:08;;;;;;;2.30;1.60;;;;;;;;;;5096516;28;20446;-61
2021/05/17 10:02:37;;;;;;;2.13;1.93;;;;;;;;;;5096620;28;20440;-60
2021/05/17 10:05:14;;;;;;;1.67;1.57;;;;;;;;;;5098179;28;20478;-59
2021/05/17 10:07:41;;;;;;;3.20;1.90;;;;;;;;;;5096748;28;20486;-60
2021/05/17 10:10:09;;;;;;;1.83;1.70;;;;;;;;;;5096870;28;20446;-59
2021/05/17 10:12:35;;;;;;;2.30;1.93;;;;;;;;;;5098301;28;20439;-61
2021/05/17 10:15:03;;;;;;;2.03;1.73;;;;;;;;;;5095655;28;21014;-60
2021/05/17 10:17:30;;;;;;;4.77;2.17;;;;;;;;;;5095998;28;20446;-60
2021/05/17 10:19:57;;;;;;;1.97;1.87;;;;;;;;;;5095812;28;20447;-61
2021/05/17 10:22:25;;;;;;;3.73;2.00;;;;;;;;;;5098451;22;20497;-58
2021/05/17 10:24:51;;;;;;;5.80;1.63;;;;;;;;;;5034073;28;20447;-58
2021/05/17 10:27:18;;;;;;;2.30;2.10;;;;;;;;;;5034098;28;20539;-58
2021/05/17 10:29:46;;;;;;;3.40;1.97;;;;;;;;;;5033887;28;20449;-58
2021/05/17 10:32:13;;;;;;;2.40;2.00;;;;;;;;;;5033985;28;21002;-58
2021/05/17 10:34:51;;;;;;;2.40;1.83;;;;;;;;;;5034301;28;20822;-57
2021/05/17 10:37:19;;;;;;;2.03;1.60;;;;;;;;;;5034522;28;20446;-59
2021/05/17 10:39:48;;;;;;;2.00;1.53;;;;;;;;;;5034396;28;20449;-58
2021/05/17 10:42:21;;;;;;;3.33;2.50;;;;;;;;;;5035204;28;20499;-57
2021/05/17 10:47:40;;;;;;;2.10;1.90;;;;;;;;;;5035189;28;20875;-58
2021/05/17 10:50:15;;;;;;;1.50;1.40;;;;;;;;;;5034557;28;20994;-58
2021/05/17 10:52:42;;;;;;;2.60;1.80;;;;;;;;;;5034774;28;20632;-58
2021/05/17 10:55:10;;;;;;;1.60;1.50;;;;;;;;;;5034657;28;20457;-58
2021/05/17 10:57:53;;;;;;;3.63;2.13;;;;;;;;;;5034552;28;20940;-57
2021/05/17 11:00:23;;;;;;;2.20;1.90;;;;;;;;;;5034506;28;20437;-58
2021/05/17 11:03:07;;;;;;;1.33;1.20;;;;;;;;;;5034685;28;20460;-58
2021/05/17 11:05:35;;;;;;;1.67;1.27;;;;;;;;;;5034038;28;20899;-57
2021/05/17 11:08:02;;;;;;;1.70;1.10;;;;;;;;;;5033316;28;20536;-58
2021/05/17 11:10:34;;;;;;;2.20;0.90;;;;;;;;;;5033139;28;20938;-58
2021/05/17 11:13:11;;;;;;;1.20;1.10;;;;;;;;;;5033708;28;20482;-58
2021/05/17 11:15:57;;;;;;;1.23;1.00;;;;;;;;;;5033482;28;20489;-58
2021/05/17 11:18:28;;;;;;;1.33;1.00;;;;;;;;;;5034032;28;20789;-58
2021/05/17 11:21:00;;;;;;;1.10;1.00;;;;;;;;;;5034343;28;20499;-58
2021/05/17 11:24:00;;;;;;;2.00;0.90;;;;;;;;;;5033694;28;20978;-58
2021/05/17 11:26:29;;;;;;;1.27;1.03;;;;;;;;;;4953391;29;20937;-58
2021/05/17 11:29:04;;;;;;;1.13;0.90;;;;;;;;;;4953458;29;20467;-59
2021/05/17 11:31:38;;;;;;;1.60;1.10;;;;;;;;;;4995161;28;20456;-58
2021/05/17 11:34:13;;;;;;;2.30;0.90;;;;;;;;;;5036543;28;20470;-59
2021/05/17 11:36:43;;;;;;;2.30;1.30;;;;;;;;;;5041890;28;20428;-58
2021/05/17 11:39:13;;;;;;;1.70;0.90;;;;;;;;;;5043727;28;20445;-59
2021/05/17 11:41:42;;;;;;;1.20;1.00;;;;;;;;;;5037097;28;20427;-58
2021/05/17 11:44:09;;;;;;;2.10;1.20;;;;;;;;;;5034336;28;20548;-58
2021/05/17 11:46:37;;;;;;;2.07;1.10;;;;;;;;;;5033507;28;20472;-58
2021/05/17 11:49:04;;;;;;;1.20;1.07;;;;;;;;;;5033269;28;20456;-56
2021/05/17 11:51:31;;;;;;;1.00;0.80;;;;;;;;;;5033511;28;20501;-59
2021/05/17 11:53:59;;;;;;;1.80;1.20;;;;;;;;;;5033280;28;20479;-57
2021/05/17 11:56:33;;;;;;;1.53;0.87;;;;;;;;;;5033354;28;20447;-58
2021/05/17 11:59:04;;;;;;;2.97;1.27;;;;;;;;;;5033326;28;20424;-57
2021/05/17 12:01:31;;;;;;;1.50;1.20;;;;;;;;;;5033270;28;20441;-57
2021/05/17 12:04:10;;;;;;;1.00;0.90;;;;;;;;;;5033195;28;20468;-57
2021/05/17 12:06:39;;;;;;;1.83;0.80;;;;;;;;;;5032696;28;20468;-58
2021/05/17 12:09:06;;;;;;;1.93;0.70;;;;;;;;;;5032720;28;20476;-58
2021/05/17 12:11:33;;;;;;;1.27;0.60;;;;;;;;;;5032762;28;20448;-57
2021/05/17 12:14:06;;;;;;;1.00;0.90;;;;;;;;;;5032801;28;20472;-58
2021/05/17 12:16:33;;;;;;;1.10;0.80;;;;;;;;;;5032807;28;20448;-59
2021/05/17 12:19:01;;;;;;;1.83;0.73;;;;;;;;;;5032648;28;20507;-59
2021/05/17 12:21:34;;;;;;;1.93;0.80;;;;;;;;;;5032616;28;20442;-58
2021/05/17 12:24:01;;;;;;;1.17;0.80;;;;;;;;;;5032325;28;20569;-59
2021/05/17 12:26:43;;;;;;;4.03;0.93;;;;;;;;;;5032687;28;20456;-58
2021/05/17 12:29:10;;;;;;;3.53;1.20;;;;;;;;;;5035183;28;20452;-57
2021/05/17 12:31:37;;;;;;;1.37;1.10;;;;;;;;;;5036780;28;20452;-59
2021/05/17 12:34:08;;;;;;;1.20;0.90;;;;;;;;;;5035990;28;20429;-56
2021/05/17 12:36:35;;;;;;;1.27;1.17;;;;;;;;;;5036918;28;20191;-58
2021/05/17 12:39:02;;;;;;;2.57;1.03;;;;;;;;;;5036691;28;20886;-57
2021/05/17 12:41:39;;;;;;;1.10;1.00;;;;;;;;;;5036689;28;20444;-57
2021/05/17 12:44:27;;;;;;;1.90;1.00;;;;;;;;;;5036285;28;20813;-59
2021/05/17 12:47:04;;;;;;;3.33;1.90;;;;;;;;;;5037286;28;20843;-57
2021/05/17 12:49:48;;;;;;;2.67;1.87;;;;;;;;;;5036127;28;20446;-57
2021/05/17 12:52:25;;;;;;;1.90;1.57;;;;;;;;;;5036496;28;20471;-58
2021/05/17 12:55:10;;;;;;;2.40;1.90;;;;;;;;;;5037088;28;20523;-59
2021/05/17 12:57:47;;;;;;;2.33;2.13;;;;;;;;;;5036381;28;20443;-58
2021/05/17 13:00:15;;;;;;;3.80;1.77;;;;;;;;;;5036201;28;20502;-57
2021/05/17 13:02:42;;;;;;;2.63;1.63;;;;;;;;;;5036171;28;20468;-58
2021/05/17 13:05:09;;;;;;;2.00;1.47;;;;;;;;;;5036009;28;20448;-59
2021/05/17 13:07:51;;;;;;;2.27;1.67;;;;;;;;;;5036484;28;20488;-58
2021/05/17 13:10:18;;;;;;;2.70;1.73;;;;;;;;;;5035668;28;20444;-58
2021/05/17 13:12:51;;;;;;;1.90;1.30;;;;;;;;;;5036009;28;20468;-58
2021/05/17 13:15:21;;;;;;;1.80;1.40;;;;;;;;;;5035935;28;20889;-59
2021/05/17 13:18:01;;;;;;;2.13;1.47;;;;;;;;;;5036095;28;20497;-59
2021/05/17 13:20:30;;;;;;;1.93;1.73;;;;;;;;;;5035717;28;20522;-58
2021/05/17 13:23:32;;;;;;;1.90;1.30;;;;;;;;;;5035647;28;20485;-58
2021/05/17 13:31:46;;;;;;;1.90;1.20;;;;;;;;;;5035444;28;20500;-57
2021/05/17 13:34:13;;;;;;;2.40;2.20;;;;;;;;;;5035883;28;20498;-58
2021/05/17 13:36:40;;;;;;;3.53;1.53;;;;;;;;;;5036254;28;20449;-58
2021/05/17 13:39:07;;;;;;;1.50;1.33;;;;;;;;;;5035012;28;20449;-58
2021/05/17 13:41:34;;;;;;;3.23;1.40;;;;;;;;;;5035726;28;20446;-58
2021/05/17 13:44:00;;;;;;;3.10;1.40;;;;;;;;;;5036103;28;20529;-57
2021/05/17 13:46:29;;;;;;;1.70;1.60;;;;;;;;;;5035689;28;20461;-57
2021/05/17 13:48:57;;;;;;;2.07;1.20;;;;;;;;;;5035339;28;20483;-57
2021/05/17 13:51:25;;;;;;;2.33;1.30;;;;;;;;;;5035288;28;20457;-58
2021/05/17 13:53:52;;;;;;;3.90;1.90;;;;;;;;;;5035263;28;20479;-57
2021/05/17 13:56:20;;;;;;;1.70;1.40;;;;;;;;;;5035039;28;20446;-58
2021/05/17 13:58:46;;;;;;;1.70;1.10;;;;;;;;;;5034716;28;20680;-58
2021/05/17 14:01:13;;;;;;;2.03;1.13;;;;;;;;;;5034626;28;20447;-58
2021/05/17 14:03:40;;;;;;;3.33;1.10;;;;;;;;;;5034606;28;21038;-57
2021/05/17 14:06:08;;;;;;;1.20;0.60;;;;;;;;;;5035059;28;20452;-58
2021/05/17 14:08:34;;;;;;;1.20;0.70;;;;;;;;;;5035063;28;20990;-58
2021/05/17 14:11:03;;;;;;;1.60;0.70;;;;;;;;;;5034978;28;20484;-57
2021/05/17 14:13:30;;;;;;;1.50;0.93;;;;;;;;;;5035606;28;20469;-57
2021/05/17 14:15:57;;;;;;;1.77;1.20;;;;;;;;;;5035095;28;20455;-57
2021/05/17 14:18:26;;;;;;;0.80;0.70;;;;;;;;;;5034405;28;20911;-57
2021/05/17 14:20:52;;;;;;;1.27;1.00;;;;;;;;;;5034531;28;20794;-57
2021/05/17 14:23:20;;;;;;;1.87;1.00;;;;;;;;;;5033996;28;20478;-57
2021/05/17 14:25:47;;;;;;;0.70;0.60;;;;;;;;;;5034486;28;20555;-57
2021/05/17 14:28:13;;;;;;;1.03;0.87;;;;;;;;;;5034234;28;20881;-56
2021/05/17 14:30:40;;;;;;;3.47;2.87;;;;;;;;;;5033955;28;20452;-58
2021/05/17 14:33:09;;;;;;;11.53;9.70;;;;;;;;;;5033372;28;20441;-57
2021/05/17 14:35:36;;;;;;;5.50;5.00;;;;;;;;;;5034243;28;20447;-57
2021/05/17 14:38:03;;;;;;;1.13;0.83;;;;;;;;;;5034004;28;20922;-57
2021/05/17 14:40:30;;;;;;;0.90;0.60;;;;;;;;;;5033799;28;20564;-56
2021/05/17 14:42:57;;;;;;;0.80;0.70;;;;;;;;;;5034179;28;20534;-57
2021/05/17 14:45:24;;;;;;;1.10;0.80;;;;;;;;;;5034860;28;20452;-57
2021/05/17 14:47:51;;;;;;;0.87;0.70;;;;;;;;;;5039418;28;20854;-58
2021/05/17 14:50:18;;;;;;;0.90;0.80;;;;;;;;;;5037872;28;20451;-57
2021/05/17 14:52:45;;;;;;;0.80;0.50;;;;;;;;;;5038296;28;20491;-57
2021/05/17 14:55:12;;;;;;;1.47;0.80;;;;;;;;;;5036000;28;20568;-59
2021/05/17 14:57:40;;;;;;;1.63;0.70;;;;;;;;;;5035375;28;20452;-58
2021/05/17 15:00:09;;;;;;;0.63;0.60;;;;;;;;;;5034273;28;20452;-57
2021/05/17 15:02:36;;;;;;;2.07;0.80;;;;;;;;;;5034296;28;20469;-59
2021/05/17 15:05:03;;;;;;;1.60;0.57;;;;;;;;;;5034197;28;20455;-57
2021/05/17 15:07:29;;;;;;;1.00;0.67;;;;;;;;;;5034161;28;20481;-56
2021/05/17 15:09:56;;;;;;;1.50;0.83;;;;;;;;;;5034208;28;20517;-56
2021/05/17 15:12:23;;;;;;;1.07;0.70;;;;;;;;;;5034665;28;20881;-59
2021/05/17 15:14:50;;;;;;;2.47;0.90;;;;;;;;;;5034254;28;20453;-58
2021/05/17 15:17:17;;;;;;;0.80;0.67;;;;;;;;;;5033822;28;20472;-58